Elmwood, Missouri
Current Conditions -  °F | °C
As of 12:58 PM on Saturday 25 Oct 2014 (Local Time) from KSZL Reporting Station
Few Clouds Few Clouds  
Wind Chill: 70°   Ceiling: Unl
Heat Index: 70°   Visibility: 8mi
Dew Point: 64°   Wind: 3mph
Humidity: 82%   Direction: NA
Pressure: 30.06"   Gusts: NA
Location:  39.0909°N, 93.4013°W
Report Text: KSZL 251758Z VRB03KT 8SM FEW004 21/18 A3006 RMK AO2A SLP178 T02100178 10213 20120 58001 $
Loading
Personal Weather Stations






























Interactive Weather Map
Tropical Storm Tracking
New forecast layout! Learn more

10-Day Weather Forecast

Advertisements
Track Severe Weather on mobile